Mc Call Municipal Airport
KMYL : rendu visible

Aérodrome :











RETROUVEZ-NOUS SUR...

 
LOGIN :

S'inscrire | Disclaimer

   EN    FR    IT 

 









Légende :    VFR   VFR Marginal   IFR   IFR Intensif   IFR Très Intensif
Visi : 
Plafond : 
>= 8 km
>= 3000ft
5 à 8 km
1000 à 3000 ft
1500m à 5 km
500 à 1000 ft
800 à 1500m
200 à 500 ft
< 800m
< 200 ft
Symboles :   Orages  Brouillard  Fortes neiges  Fortes précipitations  Vent > 20 kt






- Altitude de l'aérodrome : 5024 ft


KMYL - Mc Call Municipal

DERNIER METAR :
  • 191554Z AUTO 00000KT 3SM -SN BR FEW006 OVC015 01/M01 A2969 RMK AO2 P0000 T00061006

METARs EXPIRÉS :
  • 191551Z AUTO 24003KT 2SM -SN BR FEW006 FEW010 OVC013 01/M01 A2969 RMK AO2 RAE23SNB23 SLP062 P0005 T00061006
  • 191541Z AUTO 25004KT 3SM -SN BR FEW006 OVC011 01/M01 A2969 RMK AO2 RAE23SNB23 P0004 T00061011
  • 191521Z AUTO 26009KT 10SM -RA SCT009 BKN025 OVC040 02/00 A2969 RMK AO2 P0001 T00170000
  • 191451Z AUTO 27007G15KT 10SM -RA SCT030 OVC039 03/01 A2967 RMK AO2 RAB04 SLP049 P0000 60000 T00330006 53005
  • 191351Z AUTO 24003KT 10SM BKN047 OVC065 05/02 A2961 RMK AO2 SLP021 T00500017

TAF KMYL
Valide du 19 à 16h jusqu'au 20 à 12h UTC


191550Z 1916/2012 VRB06KT P6SM -SHSN OVC050
TEMPO 1916/1918 2SM -SN BR OVC010
FM191800 VRB03KT P6SM VCSH OVC035
FM192300 02005KT P6SM BKN070



MET'MAP, la Météo Aéronautique d'un coup d'oeil ! - Copyright ORBIFLY Décembre 2007 - Disclaimer

ORBIFLY MET'MAP TEAM :

Programmation & Développement : Alexandra Zaïnal
Conception & Développement : Baudouin d'Aumeries
Co-Programmation & Développement : Marc-Olivier Méhu
Soutien technique & logistique : Manuel Goepfert

Contact : metmap@orbifly.com




SOURCES & CREDITS :

   NOAA       Earth
Advisory